createdAt,value
2018-01-03T00:02:16.951Z,7.88
2018-01-03T00:04:44.578Z,7.70
2018-01-03T00:07:12.227Z,7.92
2018-01-03T00:09:40.003Z,7.72
2018-01-03T00:12:07.548Z,7.77
2018-01-03T00:14:35.110Z,7.82
2018-01-03T00:17:02.973Z,7.68
2018-01-03T00:19:30.541Z,7.75
2018-01-03T00:21:58.093Z,7.67
2018-01-03T00:24:25.661Z,7.93
2018-01-03T00:26:53.211Z,7.75
2018-01-03T00:29:20.762Z,7.91
2018-01-03T00:31:48.321Z,7.62
2018-01-03T00:34:16.030Z,7.82
2018-01-03T00:36:43.573Z,7.89
2018-01-03T00:39:11.156Z,7.81
2018-01-03T00:41:38.689Z,7.87
2018-01-03T00:44:06.227Z,7.88
2018-01-03T00:46:34.006Z,7.88
2018-01-03T00:49:01.553Z,7.67
2018-01-03T00:51:29.109Z,7.90
2018-01-03T00:53:56.978Z,7.74
2018-01-03T00:56:24.534Z,7.96
2018-01-03T00:58:52.087Z,8.01
2018-01-03T01:01:19.654Z,8.08
2018-01-03T01:03:47.212Z,8.07
2018-01-03T01:06:14.758Z,7.85
2018-01-03T01:08:42.365Z,7.90
2018-01-03T01:11:09.908Z,7.79
2018-01-03T01:13:37.450Z,7.90
2018-01-03T01:16:05.050Z,8.04
2018-01-03T01:18:32.598Z,8.05
2018-01-03T01:21:00.134Z,7.59
2018-01-03T01:23:27.864Z,8.03
2018-01-03T01:25:55.394Z,7.74
2018-01-03T01:28:22.925Z,7.96
2018-01-03T01:30:50.976Z,7.96
2018-01-03T01:33:18.519Z,8.09
2018-01-03T01:35:46.095Z,7.93
2018-01-03T01:38:13.702Z,8.03
2018-01-03T01:40:41.238Z,8.32
2018-01-03T01:43:08.774Z,7.98
2018-01-03T01:45:36.341Z,7.92
2018-01-03T01:48:03.877Z,8.04
2018-01-03T01:50:31.406Z,8.02
2018-01-03T01:52:59.214Z,8.23
2018-01-03T01:55:26.772Z,8.27
2018-01-03T01:57:55.251Z,7.97
2018-01-03T02:00:22.838Z,7.94
2018-01-03T02:02:50.373Z,8.03
2018-01-03T02:05:17.923Z,8.21
2018-01-03T02:07:45.695Z,8.17
2018-01-03T02:10:13.251Z,8.37
2018-01-03T02:12:40.815Z,8.32
2018-01-03T02:15:08.923Z,8.24
2018-01-03T02:17:36.651Z,8.48
2018-01-03T02:20:04.616Z,8.55
2018-01-03T02:22:33.199Z,8.61
2018-01-03T02:25:00.759Z,8.50
2018-01-03T02:27:28.320Z,8.55
2018-01-03T02:29:56.904Z,8.58
2018-01-03T02:32:24.449Z,8.52
2018-01-03T02:34:52.002Z,8.47
2018-01-03T02:37:19.578Z,8.56
2018-01-03T02:39:47.139Z,8.71
2018-01-03T02:42:14.800Z,8.71
2018-01-03T02:44:42.769Z,8.74
2018-01-03T02:47:10.374Z,8.64
2018-01-03T02:49:37.912Z,8.54
2018-01-03T02:52:05.486Z,8.86
2018-01-03T02:54:33.029Z,8.64
2018-01-03T02:57:00.561Z,8.97
2018-01-03T02:59:28.331Z,9.12
2018-01-03T03:01:55.887Z,8.85
2018-01-03T03:04:23.435Z,9.08
2018-01-03T03:06:51.312Z,8.99
2018-01-03T03:09:18.873Z,9.48
2018-01-03T03:11:46.413Z,9.20
2018-01-03T03:14:14.297Z,9.46
2018-01-03T03:16:41.853Z,9.35
2018-01-03T03:19:09.401Z,9.48
2018-01-03T03:21:37.177Z,9.34
2018-01-03T03:24:04.738Z,9.39
2018-01-03T03:26:32.296Z,9.46
2018-01-03T03:28:59.878Z,9.79
2018-01-03T03:31:27.405Z,9.67
2018-01-03T03:33:55.278Z,9.46
2018-01-03T03:36:23.161Z,9.68
2018-01-03T03:38:50.698Z,9.79
2018-01-03T03:41:18.267Z,9.86
2018-01-03T03:43:46.091Z,9.88
2018-01-03T03:46:13.629Z,9.75
2018-01-03T03:48:41.178Z,10.01
2018-01-03T03:51:08.912Z,10.01
2018-01-03T03:53:36.470Z,10.10
2018-01-03T03:56:04.017Z,10.22
2018-01-03T03:58:31.896Z,10.31
2018-01-03T04:00:59.456Z,10.34
2018-01-03T04:03:27.005Z,10.16
2018-01-03T04:05:54.582Z,10.15
2018-01-03T04:08:22.117Z,10.35
2018-01-03T04:10:49.655Z,10.41
2018-01-03T04:13:17.455Z,10.67
2018-01-03T04:15:45.029Z,10.82
2018-01-03T04:18:12.578Z,10.57
2018-01-03T04:20:40.353Z,10.91
2018-01-03T04:23:07.905Z,10.91
2018-01-03T04:25:35.456Z,11.36
2018-01-03T04:28:03.116Z,11.23
2018-01-03T04:30:30.661Z,11.17
2018-01-03T04:32:58.226Z,11.24
2018-01-03T04:35:26.003Z,11.54
2018-01-03T04:37:53.556Z,11.68
2018-01-03T04:40:21.106Z,11.83
2018-01-03T04:42:48.796Z,11.64
2018-01-03T04:45:16.336Z,11.82
2018-01-03T04:47:43.897Z,11.93
2018-01-03T04:50:11.481Z,12.07
2018-01-03T04:52:39.017Z,12.00
2018-01-03T04:55:06.563Z,12.24
2018-01-03T04:57:34.237Z,12.13
2018-01-03T05:00:01.795Z,12.35
2018-01-03T05:02:29.354Z,12.40
2018-01-03T05:04:56.920Z,12.95
2018-01-03T05:07:24.473Z,12.75
2018-01-03T05:09:52.088Z,12.85
2018-01-03T05:12:19.677Z,12.85
2018-01-03T05:14:47.226Z,13.10
2018-01-03T05:17:14.811Z,12.86
2018-01-03T05:19:42.404Z,12.93
2018-01-03T05:22:09.951Z,12.67
2018-01-03T05:24:37.496Z,12.40
2018-01-03T05:27:05.077Z,12.30
2018-01-03T05:29:32.625Z,12.29
2018-01-03T05:32:00.165Z,12.36
2018-01-03T05:34:27.761Z,12.25
2018-01-03T05:36:55.305Z,12.42
2018-01-03T05:39:22.846Z,12.29
2018-01-03T05:41:50.605Z,12.42
2018-01-03T05:44:18.149Z,12.54
2018-01-03T05:46:45.728Z,12.53
2018-01-03T05:49:13.309Z,12.64
2018-01-03T05:51:40.856Z,12.64
2018-01-03T05:54:08.407Z,12.75
2018-01-03T05:56:36.372Z,12.58
2018-01-03T05:59:03.931Z,12.68
2018-01-03T06:01:31.492Z,12.71
2018-01-03T06:03:59.355Z,12.94
2018-01-03T06:06:26.920Z,12.94
2018-01-03T06:08:54.473Z,13.07
2018-01-03T06:11:22.734Z,12.94
2018-01-03T06:13:50.281Z,12.87
2018-01-03T06:16:17.868Z,12.76
2018-01-03T06:18:45.629Z,12.53
2018-01-03T06:21:13.204Z,12.51
2018-01-03T06:23:40.749Z,12.83
2018-01-03T06:26:08.721Z,12.61
2018-01-03T06:28:36.279Z,12.81
2018-01-03T06:31:03.833Z,12.77
2018-01-03T06:33:31.701Z,12.66
2018-01-03T06:35:59.250Z,12.96
2018-01-03T06:38:26.793Z,12.83
2018-01-03T06:40:54.505Z,13.09
2018-01-03T06:43:22.042Z,13.05
2018-01-03T06:45:49.603Z,13.12
2018-01-03T06:48:17.366Z,13.07
2018-01-03T06:50:44.910Z,13.03
2018-01-03T06:53:12.445Z,13.14
2018-01-03T06:55:40.158Z,13.24
2018-01-03T06:58:07.686Z,13.50
2018-01-03T07:00:35.263Z,13.70
2018-01-03T07:03:04.049Z,13.40
2018-01-03T07:05:31.598Z,13.20
2018-01-03T07:07:59.168Z,13.27
2018-01-03T07:10:27.137Z,13.20
2018-01-03T07:12:54.691Z,13.11
2018-01-03T07:15:22.255Z,12.90
2018-01-03T07:17:50.222Z,12.72
2018-01-03T07:20:17.783Z,12.74
2018-01-03T07:22:45.373Z,12.67
2018-01-03T07:25:13.190Z,12.87
2018-01-03T07:27:40.742Z,11.75
2018-01-03T07:30:08.466Z,10.77
2018-01-03T07:32:36.428Z,10.23
2018-01-03T07:35:04.990Z,10.24
2018-01-03T07:37:32.546Z,10.13
2018-01-03T07:40:00.187Z,9.64
2018-01-03T07:42:27.759Z,9.52
2018-01-03T07:44:55.356Z,9.66
2018-01-03T07:47:22.926Z,9.66
2018-01-03T07:49:50.474Z,9.79
2018-01-03T07:52:18.055Z,9.45
2018-01-03T07:54:48.113Z,9.60
2018-01-03T07:57:17.259Z,9.59
2018-01-03T07:59:45.349Z,9.57
2018-01-03T08:02:13.665Z,9.54
2018-01-03T08:04:41.205Z,9.48
2018-01-03T08:07:08.891Z,9.45
2018-01-03T08:09:36.444Z,9.44
2018-01-03T08:12:04.041Z,9.68
2018-01-03T08:14:31.757Z,9.55
2018-01-03T08:17:00.350Z,9.81
2018-01-03T08:19:29.133Z,9.52
2018-01-03T08:21:56.897Z,9.77
2018-01-03T08:24:24.461Z,9.76
2018-01-03T08:26:52.796Z,9.67
2018-01-03T08:29:20.600Z,9.81
2018-01-03T08:31:48.260Z,9.70
2018-01-03T08:34:16.132Z,9.91
2018-01-03T08:36:43.924Z,9.60
2018-01-03T08:39:11.554Z,9.88
2018-01-03T08:41:40.139Z,10.01
2018-01-03T08:44:07.917Z,9.85
2018-01-03T08:46:35.455Z,10.09
2018-01-03T08:49:03.019Z,10.14
2018-01-03T08:51:30.626Z,10.27
2018-01-03T08:53:58.174Z,10.44
2018-01-03T08:56:25.725Z,10.11
2018-01-03T08:58:53.457Z,9.76
2018-01-03T09:01:21.020Z,9.75
2018-01-03T09:03:48.579Z,9.82
2018-01-03T09:06:16.567Z,9.89
2018-01-03T09:08:44.618Z,9.87
2018-01-03T09:11:12.177Z,9.81
2018-01-03T09:13:39.966Z,9.87
2018-01-03T09:16:07.502Z,9.82
2018-01-03T09:18:35.046Z,9.93
2018-01-03T09:21:02.621Z,9.90
2018-01-03T09:23:30.188Z,9.98
2018-01-03T09:25:57.730Z,10.09
2018-01-03T09:28:25.395Z,10.13
2018-01-03T09:30:52.958Z,10.13
2018-01-03T09:33:20.523Z,10.21
2018-01-03T09:35:48.303Z,9.92
2018-01-03T09:38:15.842Z,10.01
2018-01-03T09:40:43.603Z,9.32
2018-01-03T09:43:11.575Z,9.08
2018-01-03T09:45:39.131Z,9.57
2018-01-03T09:48:06.691Z,9.65
2018-01-03T09:50:34.287Z,9.40
2018-01-03T09:53:01.831Z,9.12
2018-01-03T09:55:29.370Z,9.36
2018-01-03T09:57:57.438Z,9.13
2018-01-03T10:00:24.985Z,9.14
2018-01-03T10:02:52.598Z,9.00
2018-01-03T10:05:20.450Z,9.12
2018-01-03T10:07:47.981Z,9.02
2018-01-03T10:10:15.567Z,9.09
2018-01-03T10:12:43.140Z,8.71
2018-01-03T10:15:10.678Z,8.76
2018-01-03T10:17:38.210Z,8.69
2018-01-03T10:20:05.818Z,9.08
2018-01-03T10:22:33.438Z,8.45
2018-01-03T10:25:01.054Z,8.64
2018-01-03T10:27:28.969Z,8.72
2018-01-03T10:29:56.514Z,8.39
2018-01-03T10:32:24.062Z,8.28
2018-01-03T10:34:51.958Z,8.27
2018-01-03T10:37:19.497Z,8.20
2018-01-03T10:39:47.030Z,8.02
2018-01-03T10:44:47.074Z,8.45
2018-01-03T10:47:15.397Z,8.04
2018-01-03T10:49:43.093Z,8.21
2018-01-03T10:52:10.999Z,8.20
2018-01-03T10:54:38.506Z,8.21
2018-01-03T10:57:06.009Z,8.21
2018-01-03T10:59:34.504Z,8.30
2018-01-03T11:02:02.267Z,8.33
2018-01-03T11:04:29.781Z,8.33
2018-01-03T11:06:57.460Z,8.30
2018-01-03T11:09:25.169Z,8.53
2018-01-03T11:11:52.724Z,8.49
2018-01-03T11:14:21.161Z,8.62
2018-01-03T11:16:48.750Z,8.40
2018-01-03T11:19:16.299Z,9.09
2018-01-03T11:21:44.070Z,9.90
2018-01-03T11:24:11.569Z,9.79
2018-01-03T11:26:39.209Z,9.36
2018-01-03T11:29:07.136Z,9.69
2018-01-03T11:31:34.645Z,10.62
2018-01-03T11:34:02.174Z,10.93
2018-01-03T11:36:29.840Z,12.17
2018-01-03T11:38:57.394Z,11.74
2018-01-03T11:41:24.910Z,13.84
2018-01-03T11:43:52.709Z,15.61
2018-01-03T11:46:20.213Z,15.11
2018-01-03T11:48:47.734Z,13.39
2018-01-03T11:51:15.465Z,15.14
2018-01-03T11:53:42.969Z,14.18
2018-01-03T11:56:10.473Z,12.46
2018-01-03T11:58:38.453Z,10.67
2018-01-03T12:01:05.969Z,10.15
2018-01-03T12:03:33.498Z,10.12
2018-01-03T12:06:01.345Z,10.13
2018-01-03T12:08:28.900Z,9.63
2018-01-03T12:10:56.437Z,9.57
2018-01-03T12:13:24.117Z,9.19
2018-01-03T12:15:51.625Z,9.23
2018-01-03T12:18:19.141Z,9.06
2018-01-03T12:20:47.230Z,9.39
2018-01-03T12:23:14.802Z,9.58
2018-01-03T12:25:42.353Z,11.69
2018-01-03T12:28:09.934Z,13.42
2018-01-03T12:30:37.789Z,13.72
2018-01-03T12:33:05.340Z,12.68
2018-01-03T12:35:33.307Z,11.84
2018-01-03T12:38:00.874Z,11.12
2018-01-03T12:40:28.523Z,10.40
2018-01-03T12:42:56.592Z,10.25
2018-01-03T12:45:24.098Z,10.09
2018-01-03T12:47:51.609Z,10.27
2018-01-03T12:50:19.271Z,10.42
2018-01-03T12:52:46.830Z,10.46
2018-01-03T12:55:14.358Z,10.67
2018-01-03T12:57:41.947Z,10.05
2018-01-03T13:00:09.449Z,10.33
2018-01-03T13:02:36.958Z,10.01
2018-01-03T13:05:04.871Z,9.97
2018-01-03T13:07:32.429Z,9.79
2018-01-03T13:09:59.947Z,9.86
2018-01-03T13:12:27.506Z,10.24
2018-01-03T13:14:55.159Z,10.17
2018-01-03T13:17:22.673Z,10.11
2018-01-03T13:19:50.226Z,10.18
2018-01-03T13:22:17.742Z,9.96
2018-01-03T13:24:45.610Z,10.10
2018-01-03T13:27:13.190Z,9.91
2018-01-03T13:29:40.692Z,10.07
2018-01-03T13:32:08.286Z,10.24
2018-01-03T13:34:36.053Z,9.94
2018-01-03T13:37:03.608Z,9.74
2018-01-03T13:39:31.579Z,10.01
2018-01-03T13:41:59.330Z,9.60
2018-01-03T13:44:26.868Z,9.61
2018-01-03T13:46:54.522Z,9.80
2018-01-03T13:49:22.332Z,9.93
2018-01-03T13:51:49.887Z,9.63
2018-01-03T13:54:17.556Z,10.14
2018-01-03T13:56:45.144Z,9.91
2018-01-03T13:59:12.649Z,10.21
2018-01-03T14:01:40.172Z,9.96
2018-01-03T14:04:08.312Z,9.91
2018-01-03T14:06:35.969Z,10.18
2018-01-03T14:09:03.517Z,9.91
2018-01-03T14:11:32.266Z,10.00
2018-01-03T14:14:00.674Z,10.15
2018-01-03T14:16:28.187Z,9.84
2018-01-03T14:18:55.903Z,10.09
2018-01-03T14:21:23.461Z,10.18
2018-01-03T14:23:51.124Z,10.13
2018-01-03T14:26:18.764Z,10.11
2018-01-03T14:28:46.465Z,9.55
2018-01-03T14:31:14.009Z,9.91
2018-01-03T14:33:41.749Z,9.94
2018-01-03T14:36:09.257Z,9.72
2018-01-03T14:38:36.777Z,9.69
2018-01-03T14:41:05.368Z,9.72
2018-01-03T14:43:32.928Z,9.85
2018-01-03T14:46:00.433Z,9.61
2018-01-03T14:48:28.243Z,9.87
2018-01-03T14:50:55.861Z,9.75
2018-01-03T14:53:23.368Z,9.92
2018-01-03T14:55:51.337Z,10.01
2018-01-03T14:58:18.999Z,9.59
2018-01-03T15:00:46.524Z,9.70
2018-01-03T15:03:14.615Z,9.56
2018-01-03T15:05:42.392Z,9.54
2018-01-03T15:08:09.956Z,9.54
2018-01-03T15:10:37.506Z,9.67
2018-01-03T15:13:05.013Z,9.47
2018-01-03T15:15:32.557Z,9.43
2018-01-03T15:18:00.393Z,9.68
2018-01-03T15:20:27.952Z,9.86
2018-01-03T15:22:55.480Z,9.70
2018-01-03T15:25:23.691Z,9.69
2018-01-03T15:27:51.212Z,9.63
2018-01-03T15:30:18.729Z,9.35
2018-01-03T15:32:46.466Z,9.73
2018-01-03T15:35:14.335Z,9.63
2018-01-03T15:37:42.504Z,9.64
2018-01-03T15:40:10.371Z,9.74
2018-01-03T15:42:38.134Z,9.83
2018-01-03T15:45:05.693Z,9.91
2018-01-03T15:47:33.728Z,9.68
2018-01-03T15:50:01.285Z,9.62
2018-01-03T15:52:28.985Z,9.89
2018-01-03T15:54:56.904Z,9.93
2018-01-03T15:57:24.804Z,10.01
2018-01-03T15:59:52.439Z,9.87
2018-01-03T16:02:20.352Z,9.66
2018-01-03T16:04:47.901Z,9.32
2018-01-03T16:07:15.505Z,9.07
2018-01-03T16:09:43.240Z,8.62
2018-01-03T16:12:10.746Z,8.51
2018-01-03T16:14:38.554Z,8.40
2018-01-03T16:17:06.624Z,8.39
2018-01-03T16:19:34.491Z,8.32
2018-01-03T16:22:02.348Z,8.05
2018-01-03T16:24:29.924Z,8.12
2018-01-03T16:26:57.490Z,8.25
2018-01-03T16:29:25.343Z,8.34
2018-01-03T16:31:53.107Z,8.41
2018-01-03T16:34:20.822Z,8.35
2018-01-03T16:36:48.535Z,8.33
2018-01-03T16:39:18.138Z,8.51
2018-01-03T16:41:46.023Z,8.43
2018-01-03T16:44:14.178Z,8.63
2018-01-03T16:46:43.135Z,8.47
2018-01-03T16:49:14.809Z,8.68
2018-01-03T16:54:56.633Z,9.05
2018-01-03T16:57:24.504Z,8.84
2018-01-03T16:59:54.068Z,9.36
2018-01-03T17:02:21.730Z,9.06
2018-01-03T17:04:49.964Z,9.45
2018-01-03T17:07:17.931Z,8.93
2018-01-03T17:09:45.795Z,9.39
2018-01-03T17:12:13.879Z,9.35
2018-01-03T17:14:41.938Z,9.27
2018-01-03T17:17:10.578Z,9.43
2018-01-03T17:19:38.473Z,9.22
2018-01-03T17:22:06.492Z,8.93
2018-01-03T17:24:34.314Z,9.46
2018-01-03T17:27:02.447Z,9.44
2018-01-03T17:29:30.457Z,9.29
2018-01-03T17:31:58.424Z,9.48
2018-01-03T17:34:26.392Z,9.65
2018-01-03T17:36:54.262Z,9.52
2018-01-03T17:39:22.227Z,9.49
2018-01-03T17:41:50.196Z,9.19
2018-01-03T17:44:17.960Z,9.17
2018-01-03T17:46:45.725Z,9.39
2018-01-03T17:49:13.590Z,9.51
2018-01-03T17:51:41.380Z,9.71
2018-01-03T17:54:09.017Z,9.49
2018-01-03T17:56:36.895Z,9.93
2018-01-03T17:59:04.544Z,9.49
2018-01-03T18:01:32.409Z,9.34
2018-01-03T18:04:00.583Z,9.50
2018-01-03T18:06:28.356Z,9.55
2018-01-03T18:08:55.973Z,9.54
2018-01-03T18:11:23.796Z,9.81
2018-01-03T18:13:51.471Z,9.67
2018-01-03T18:16:19.198Z,9.79
2018-01-03T18:18:46.846Z,9.46
2018-01-03T18:21:14.635Z,9.57
2018-01-03T18:23:42.379Z,9.35
2018-01-03T18:26:10.357Z,9.39
2018-01-03T18:28:38.036Z,9.60
2018-01-03T18:31:05.600Z,9.64
2018-01-03T18:33:33.648Z,9.63
2018-01-03T18:36:01.514Z,9.64
2018-01-03T18:38:30.320Z,9.60
2018-01-03T18:40:58.067Z,9.20
2018-01-03T18:43:26.649Z,9.29
2018-01-03T18:45:54.918Z,9.74
2018-01-03T18:48:22.673Z,9.43
2018-01-03T18:50:50.293Z,9.49
2018-01-03T18:53:17.811Z,9.38
2018-01-03T18:55:45.376Z,9.71
2018-01-03T18:58:12.904Z,9.25
2018-01-03T19:00:40.595Z,9.41
2018-01-03T19:03:08.671Z,9.15
2018-01-03T19:05:36.628Z,9.33
2018-01-03T19:08:04.288Z,9.40
2018-01-03T19:10:31.983Z,9.24
2018-01-03T19:12:59.508Z,9.17
2018-01-03T19:15:27.376Z,9.12
2018-01-03T19:17:55.344Z,9.32
2018-01-03T19:20:23.108Z,9.23
2018-01-03T19:22:50.983Z,9.38
2018-01-03T19:25:19.050Z,9.23
2018-01-03T19:27:46.912Z,9.24
2018-01-03T19:30:14.679Z,9.27
2018-01-03T19:32:42.747Z,9.51
2018-01-03T19:35:10.682Z,9.46
2018-01-03T19:37:38.496Z,9.64
2018-01-03T19:40:06.550Z,9.73
2018-01-03T19:42:34.534Z,9.66
2018-01-03T19:45:02.385Z,9.63
2018-01-03T19:47:31.318Z,9.56
2018-01-03T19:49:59.062Z,9.70
2018-01-03T19:52:26.807Z,9.37
2018-01-03T19:54:54.944Z,9.89
2018-01-03T19:57:22.962Z,9.57
2018-01-03T19:59:50.813Z,9.68
2018-01-03T20:02:19.996Z,9.63
2018-01-03T20:04:47.978Z,9.55
2018-01-03T20:07:16.665Z,9.67
2018-01-03T20:09:44.469Z,9.40
2018-01-03T20:12:12.192Z,9.53
2018-01-03T20:14:39.955Z,9.67
2018-01-03T20:17:08.436Z,9.77
2018-01-03T20:19:36.064Z,9.49
2018-01-03T20:22:04.375Z,9.61
2018-01-03T20:24:32.140Z,9.52
2018-01-03T20:27:00.486Z,9.75
2018-01-03T20:29:28.299Z,9.53
2018-01-03T20:31:56.054Z,9.47
2018-01-03T20:34:23.788Z,9.50
2018-01-03T20:36:51.588Z,9.48
2018-01-03T20:39:20.360Z,9.77
2018-01-03T20:41:48.125Z,9.96
2018-01-03T20:44:16.094Z,9.77
2018-01-03T20:46:44.966Z,9.88
2018-01-03T20:49:13.057Z,9.86
2018-01-03T20:51:40.818Z,9.95
2018-01-03T20:54:08.992Z,9.60
2018-01-03T20:56:36.962Z,9.90
2018-01-03T20:59:04.739Z,9.77
2018-01-03T21:01:32.898Z,9.83
2018-01-03T21:04:00.868Z,9.64
2018-01-03T21:06:29.201Z,9.98
2018-01-03T21:08:57.842Z,9.79
2018-01-03T21:11:25.702Z,9.80
2018-01-03T21:13:53.664Z,9.80
2018-01-03T21:16:21.739Z,9.79
2018-01-03T21:18:49.704Z,10.17
2018-01-03T21:21:17.330Z,10.16
2018-01-03T21:23:46.542Z,9.60
2018-01-03T21:26:14.431Z,9.64
2018-01-03T21:28:42.705Z,9.78
2018-01-03T21:31:11.085Z,9.87
2018-01-03T21:33:38.949Z,9.86
2018-01-03T21:36:06.739Z,9.79
2018-01-03T21:38:34.891Z,10.01
2018-01-03T21:41:02.679Z,9.74
2018-01-03T21:43:30.519Z,9.92
2018-01-03T21:45:59.491Z,9.80
2018-01-03T21:48:27.172Z,9.70
2018-01-03T21:50:54.834Z,9.62
2018-01-03T21:53:22.599Z,9.74
2018-01-03T21:55:50.361Z,9.62
2018-01-03T21:58:18.201Z,9.58
2018-01-03T22:00:46.109Z,9.42
2018-01-03T22:03:13.958Z,9.69
2018-01-03T22:05:41.622Z,9.78
2018-01-03T22:08:09.537Z,9.69
2018-01-03T22:10:37.262Z,9.30
2018-01-03T22:13:04.814Z,9.23
2018-01-03T22:15:32.780Z,9.27
2018-01-03T22:18:00.321Z,9.53
2018-01-03T22:20:27.898Z,9.24
2018-01-03T22:22:55.456Z,9.32
2018-01-03T22:25:23.005Z,9.27
2018-01-03T22:27:50.598Z,8.96
2018-01-03T22:30:18.567Z,8.76
2018-01-03T22:32:46.103Z,8.76
2018-01-03T22:35:13.610Z,8.82
2018-01-03T22:37:41.233Z,8.63
2018-01-03T22:40:08.782Z,8.74
2018-01-03T22:42:36.285Z,8.52
2018-01-03T22:45:04.101Z,8.50
2018-01-03T22:47:31.605Z,8.37
2018-01-03T22:49:59.112Z,8.38
2018-01-03T22:52:26.681Z,8.50
2018-01-03T22:54:54.177Z,8.80
2018-01-03T22:57:21.801Z,8.62
2018-01-03T22:59:49.385Z,8.76
2018-01-03T23:02:16.898Z,8.77
2018-01-03T23:04:44.475Z,8.71
2018-01-03T23:07:12.005Z,8.86
2018-01-03T23:09:39.535Z,8.57
2018-01-03T23:12:07.037Z,8.74
2018-01-03T23:14:34.732Z,8.92
2018-01-03T23:17:02.272Z,8.76
2018-01-03T23:19:29.772Z,8.86
2018-01-03T23:21:57.595Z,8.74
2018-01-03T23:24:25.558Z,9.11
2018-01-03T23:26:53.069Z,9.30
2018-01-03T23:29:20.609Z,9.22
2018-01-03T23:31:48.106Z,8.92
2018-01-03T23:34:16.516Z,8.95
2018-01-03T23:36:44.385Z,9.17
2018-01-03T23:39:11.889Z,9.10
2018-01-03T23:41:39.398Z,8.96
2018-01-03T23:44:06.944Z,8.83
2018-01-03T23:46:34.558Z,8.79
2018-01-03T23:49:02.058Z,8.84
2018-01-03T23:51:29.843Z,9.21
2018-01-03T23:53:57.427Z,9.31
2018-01-03T23:56:24.958Z,9.00
2018-01-03T23:58:52.720Z,9.09
